Terminal Aerodrome Forecast
Issued by NWS

Home | Current Version | Previous Version | Text Only | Print | Product List | Glossary On
Versions: 1 2 3 4 5 6 7 8 9 10 11 12 13 14 15 16 17
000
FTAK31 PAFA 231732
TAFAQT
TAF
PAQT 231732Z 2318/2418 05006KT P6SM FEW005 BKN200
     FM232200 07012KT P6SM FEW005 SCT050 BKN100
     FM240300 08020G30KT 3SM BLSN SCT015 BKN025 OVC050
     FM240600 08025G35KT 1 1/2SM -SN BLSN BR SCT005 OVC015
     FM240900 08025G35KT 1/2SM SN BLSN FZFG OVC005=

USA.gov is the U.S. government's official web portal to all federal, state and local government web resources and services.